createdAt,value
2022-11-28T00:01:19.415Z,4.01
2022-11-28T00:03:24.833Z,3.87
2022-11-28T00:05:27.652Z,3.61
2022-11-28T00:07:30.379Z,3.63
2022-11-28T00:09:33.360Z,3.73
2022-11-28T00:11:36.177Z,3.67
2022-11-28T00:13:39.848Z,3.68
2022-11-28T00:15:42.626Z,3.79
2022-11-28T00:17:45.454Z,3.68
2022-11-28T00:19:49.652Z,3.55
2022-11-28T00:21:52.335Z,3.69
2022-11-28T00:23:55.077Z,3.66
2022-11-28T00:25:59.352Z,3.63
2022-11-28T00:28:02.008Z,3.71
2022-11-28T00:30:05.224Z,3.85
2022-11-28T00:32:07.961Z,3.77
2022-11-28T00:34:11.129Z,3.83
2022-11-28T00:36:15.386Z,3.75
2022-11-28T00:38:18.286Z,3.70
2022-11-28T00:40:20.984Z,3.67
2022-11-28T00:42:23.627Z,3.77
2022-11-28T00:44:26.350Z,3.76
2022-11-28T00:46:29.077Z,3.72
2022-11-28T00:48:33.143Z,3.94
2022-11-28T00:50:35.848Z,3.83
2022-11-28T00:52:39.908Z,3.86
2022-11-28T00:54:42.759Z,3.92
2022-11-28T00:56:45.655Z,3.90
2022-11-28T00:58:49.560Z,3.86
2022-11-28T01:00:52.341Z,3.79
2022-11-28T01:02:55.049Z,3.94
2022-11-28T01:04:57.719Z,3.78
2022-11-28T01:07:00.404Z,3.84
2022-11-28T01:09:07.154Z,3.88
2022-11-28T01:11:13.085Z,3.80
2022-11-28T01:13:15.899Z,3.87
2022-11-28T01:15:18.668Z,3.90
2022-11-28T01:17:21.397Z,3.98
2022-11-28T01:19:24.166Z,4.17
2022-11-28T01:21:27.475Z,3.92
2022-11-28T01:23:30.193Z,3.91
2022-11-28T01:25:34.358Z,4.12
2022-11-28T01:27:37.101Z,3.99
2022-11-28T01:29:39.776Z,3.97
2022-11-28T01:31:42.523Z,4.01
2022-11-28T01:33:45.463Z,3.97
2022-11-28T01:35:56.128Z,3.76
2022-11-28T01:37:58.864Z,3.72
2022-11-28T01:40:01.551Z,3.64
2022-11-28T01:42:05.849Z,3.65
2022-11-28T01:44:47.478Z,3.62
2022-11-28T01:46:50.317Z,3.69
2022-11-28T01:48:54.795Z,3.63
2022-11-28T01:51:00.954Z,3.67
2022-11-28T01:53:09.421Z,3.71
2022-11-28T01:55:16.283Z,3.75
2022-11-28T01:57:23.842Z,3.76
2022-11-28T01:59:30.640Z,3.74
2022-11-28T02:01:33.358Z,3.81
2022-11-28T02:03:42.838Z,3.79
2022-11-28T02:05:46.280Z,3.75
2022-11-28T02:07:50.867Z,3.91
2022-11-28T02:09:53.616Z,3.65
2022-11-28T02:12:18.257Z,3.60
2022-11-28T02:14:30.865Z,3.64
2022-11-28T02:16:51.168Z,3.64
2022-11-28T02:19:05.319Z,3.58
2022-11-28T02:21:45.034Z,3.59
2022-11-28T02:24:29.836Z,3.58
2022-11-28T02:27:10.472Z,3.70
2022-11-28T02:29:52.449Z,3.63
2022-11-28T02:32:19.080Z,3.70
2022-11-28T02:34:29.831Z,3.69
2022-11-28T02:36:37.137Z,3.67
2022-11-28T02:39:00.215Z,3.54
2022-11-28T02:41:09.227Z,3.66
2022-11-28T02:43:21.792Z,3.68
2022-11-28T02:45:32.332Z,3.53
2022-11-28T02:47:39.171Z,3.59
2022-11-28T02:49:44.895Z,3.41
2022-11-28T02:51:53.091Z,3.29
2022-11-28T02:53:57.014Z,3.25
2022-11-28T02:56:00.679Z,3.28
2022-11-28T02:58:03.442Z,3.26
2022-11-28T03:00:25.816Z,3.29
2022-11-28T03:02:31.307Z,3.51
2022-11-28T03:04:47.703Z,3.44
2022-11-28T03:06:59.882Z,3.39
2022-11-28T03:09:18.518Z,3.24
2022-11-28T03:11:26.505Z,3.29
2022-11-28T03:13:39.768Z,3.50
2022-11-28T03:15:50.636Z,3.29
2022-11-28T03:18:03.235Z,3.49
2022-11-28T03:20:18.091Z,3.37
2022-11-28T03:22:30.951Z,3.52
2022-11-28T03:24:37.032Z,3.47
2022-11-28T03:26:46.725Z,3.44
2022-11-28T03:28:55.251Z,3.25
2022-11-28T03:31:01.877Z,3.50
2022-11-28T03:33:06.716Z,3.46
2022-11-28T03:35:15.044Z,3.23
2022-11-28T03:37:21.964Z,3.34
2022-11-28T03:39:27.036Z,3.28
2022-11-28T03:41:37.996Z,3.29
2022-11-28T03:43:45.260Z,3.29
2022-11-28T03:45:52.079Z,3.41
2022-11-28T03:47:58.822Z,3.41
2022-11-28T03:50:07.067Z,3.40
2022-11-28T03:52:17.108Z,3.41
2022-11-28T03:54:26.770Z,3.25
2022-11-28T03:56:39.538Z,3.22
2022-11-28T03:58:46.706Z,3.17
2022-11-28T04:00:53.990Z,3.08
2022-11-28T04:03:12.855Z,3.14
2022-11-28T04:05:24.001Z,3.17
2022-11-28T04:07:37.849Z,3.24
2022-11-28T04:09:47.966Z,3.26
2022-11-28T04:11:55.195Z,3.30
2022-11-28T04:14:03.811Z,3.30
2022-11-28T04:16:14.004Z,3.35
2022-11-28T04:18:22.361Z,3.41
2022-11-28T04:20:33.415Z,3.45
2022-11-28T04:22:43.617Z,3.45
2022-11-28T04:24:51.074Z,3.47
2022-11-28T04:27:00.269Z,3.56
2022-11-28T04:29:06.756Z,3.54
2022-11-28T04:31:10.949Z,3.40
2022-11-28T04:33:15.554Z,3.36
2022-11-28T04:35:24.631Z,3.30
2022-11-28T04:37:29.456Z,3.28
2022-11-28T04:39:36.102Z,3.18
2022-11-28T04:41:42.350Z,3.18
2022-11-28T04:43:50.953Z,3.24
2022-11-28T04:45:57.313Z,3.28
2022-11-28T04:48:00.799Z,3.27
2022-11-28T04:50:03.600Z,3.31
2022-11-28T04:52:10.882Z,3.40
2022-11-28T04:54:18.089Z,3.42
2022-11-28T04:56:25.375Z,3.38
2022-11-28T04:58:36.440Z,3.41
2022-11-28T05:00:40.824Z,3.46
2022-11-28T05:02:46.242Z,3.58
2022-11-28T05:04:48.965Z,3.71
2022-11-28T05:06:52.141Z,3.74
2022-11-28T05:08:54.878Z,3.76
2022-11-28T05:10:57.695Z,3.79
2022-11-28T05:13:01.776Z,3.82
2022-11-28T05:15:05.462Z,3.88
2022-11-28T05:17:08.631Z,3.66
2022-11-28T05:19:11.339Z,3.62
2022-11-28T05:21:14.056Z,3.53
2022-11-28T05:23:16.768Z,3.51
2022-11-28T05:25:19.479Z,3.49
2022-11-28T05:27:22.142Z,3.55
2022-11-28T05:29:26.203Z,3.56
2022-11-28T05:31:29.225Z,3.48
2022-11-28T05:33:34.115Z,3.48
2022-11-28T05:35:40.168Z,3.48
2022-11-28T05:37:42.915Z,3.56
2022-11-28T05:39:45.757Z,3.48
2022-11-28T05:41:48.605Z,3.39
2022-11-28T05:43:51.732Z,3.35
2022-11-28T05:45:56.488Z,3.40
2022-11-28T05:47:59.245Z,3.49
2022-11-28T05:50:01.974Z,3.51
2022-11-28T05:52:04.899Z,3.53
2022-11-28T05:54:08.093Z,3.53
2022-11-28T05:56:13.218Z,3.57
2022-11-28T05:58:16.157Z,3.54
2022-11-28T06:00:20.077Z,3.54
2022-11-28T06:02:24.278Z,3.66
2022-11-28T06:04:27.125Z,3.65
2022-11-28T06:06:31.820Z,3.67
2022-11-28T06:08:34.537Z,3.64
2022-11-28T06:10:37.231Z,3.60
2022-11-28T06:12:39.985Z,3.56
2022-11-28T06:14:42.734Z,3.61
2022-11-28T06:16:45.613Z,3.57
2022-11-28T06:18:53.073Z,3.61
2022-11-28T06:20:55.993Z,3.67
2022-11-28T06:22:58.696Z,3.67
2022-11-28T06:25:01.460Z,3.70
2022-11-28T06:27:04.222Z,3.75
2022-11-28T06:29:06.965Z,3.82
2022-11-28T06:31:11.664Z,3.87
2022-11-28T06:33:14.363Z,3.91
2022-11-28T06:35:18.555Z,3.94
2022-11-28T06:37:21.293Z,3.96
2022-11-28T06:39:23.990Z,3.95
2022-11-28T06:41:26.758Z,3.96
2022-11-28T06:43:29.597Z,4.02
2022-11-28T06:45:32.387Z,4.08
2022-11-28T06:47:35.157Z,4.09
2022-11-28T06:49:37.854Z,4.13
2022-11-28T06:51:42.756Z,4.14
2022-11-28T06:53:45.576Z,4.17
2022-11-28T06:55:48.778Z,4.27
2022-11-28T06:57:51.435Z,4.28
2022-11-28T06:59:54.135Z,4.28
2022-11-28T07:01:57.698Z,4.34
2022-11-28T07:04:00.531Z,4.38
2022-11-28T07:06:04.011Z,4.44
2022-11-28T07:08:08.354Z,4.45
2022-11-28T07:10:11.887Z,4.41
2022-11-28T07:12:15.896Z,4.36
2022-11-28T07:14:18.617Z,4.42
2022-11-28T07:16:22.860Z,4.39
2022-11-28T07:18:25.712Z,4.41
2022-11-28T07:20:28.505Z,4.37
2022-11-28T07:22:31.636Z,4.42
2022-11-28T07:24:35.680Z,4.42
2022-11-28T07:26:38.402Z,4.42
2022-11-28T07:28:41.828Z,4.47
2022-11-28T07:30:44.550Z,4.46
2022-11-28T07:32:47.244Z,4.48
2022-11-28T07:34:50.342Z,4.55
2022-11-28T07:36:53.151Z,4.56
2022-11-28T07:38:57.334Z,4.58
2022-11-28T07:41:06.149Z,4.57
2022-11-28T07:43:08.852Z,4.65
2022-11-28T07:45:12.408Z,4.73
2022-11-28T07:47:15.180Z,4.81
2022-11-28T07:49:17.968Z,4.80
2022-11-28T07:51:23.925Z,4.73
2022-11-28T07:53:26.793Z,4.60
2022-11-28T07:55:29.497Z,4.60
2022-11-28T07:57:34.149Z,4.60
2022-11-28T07:59:37.164Z,4.55
2022-11-28T08:01:40.193Z,4.51
2022-11-28T08:03:44.677Z,4.44
2022-11-28T08:05:49.564Z,4.50
2022-11-28T08:07:52.446Z,4.58
2022-11-28T08:09:55.211Z,4.62
2022-11-28T08:11:57.896Z,4.76
2022-11-28T08:14:02.050Z,4.82
2022-11-28T08:16:06.791Z,4.86
2022-11-28T08:18:09.975Z,4.88
2022-11-28T08:20:13.465Z,4.90
2022-11-28T08:22:16.227Z,4.89
2022-11-28T08:24:18.987Z,5.01
2022-11-28T08:26:29.136Z,5.00
2022-11-28T08:28:33.257Z,5.04
2022-11-28T08:30:37.452Z,5.06
2022-11-28T08:32:40.355Z,4.98
2022-11-28T08:34:43.244Z,5.07
2022-11-28T08:36:47.330Z,5.02
2022-11-28T08:39:03.291Z,5.10
2022-11-28T08:41:14.082Z,5.14
2022-11-28T08:43:16.776Z,5.19
2022-11-28T08:45:19.732Z,5.20
2022-11-28T08:47:23.877Z,5.23
2022-11-28T08:49:26.764Z,5.27
2022-11-28T08:51:30.583Z,5.18
2022-11-28T08:53:33.647Z,5.21
2022-11-28T08:55:40.551Z,5.20
2022-11-28T08:57:44.577Z,5.33
2022-11-28T08:59:47.304Z,5.40
2022-11-28T09:01:50.505Z,5.39
2022-11-28T09:03:56.457Z,5.28
2022-11-28T09:06:02.595Z,5.24
2022-11-28T09:08:10.161Z,5.20
2022-11-28T09:10:14.516Z,5.09
2022-11-28T09:12:17.541Z,5.15
2022-11-28T09:14:20.210Z,5.33
2022-11-28T09:16:22.877Z,5.24
2022-11-28T09:18:27.040Z,5.15
2022-11-28T09:20:31.250Z,5.44
2022-11-28T09:22:34.179Z,5.68
2022-11-28T09:24:36.906Z,5.17
2022-11-28T09:26:39.687Z,5.13
2022-11-28T09:28:43.391Z,5.07
2022-11-28T09:30:46.233Z,5.12
2022-11-28T09:32:49.716Z,5.05
2022-11-28T09:34:52.408Z,5.05
2022-11-28T09:36:59.697Z,5.10
2022-11-28T09:39:05.046Z,5.21
2022-11-28T09:41:30.426Z,5.35
2022-11-28T09:43:37.598Z,5.28
2022-11-28T09:45:41.077Z,5.39
2022-11-28T09:47:47.355Z,5.41
2022-11-28T09:49:53.445Z,5.72
2022-11-28T09:52:03.452Z,5.65
2022-11-28T09:54:14.447Z,5.57
2022-11-28T09:56:20.468Z,5.75
2022-11-28T09:58:31.392Z,6.08
2022-11-28T10:00:38.917Z,5.97
2022-11-28T10:02:50.844Z,5.57
2022-11-28T10:05:03.848Z,5.49
2022-11-28T10:07:16.720Z,5.42
2022-11-28T10:09:33.598Z,5.45
2022-11-28T10:11:48.484Z,5.55
2022-11-28T10:14:14.289Z,5.75
2022-11-28T10:16:23.006Z,5.49
2022-11-28T10:18:35.979Z,5.62
2022-11-28T10:20:42.643Z,5.42
2022-11-28T10:22:51.127Z,5.48
2022-11-28T10:24:57.358Z,5.69
2022-11-28T10:27:05.536Z,5.89
2022-11-28T10:29:19.278Z,5.84
2022-11-28T10:31:30.586Z,5.98
2022-11-28T10:33:41.155Z,6.04
2022-11-28T10:35:47.400Z,6.06
2022-11-28T10:37:53.177Z,6.01
2022-11-28T10:39:57.150Z,6.01
2022-11-28T10:42:15.404Z,6.06
2022-11-28T10:44:28.258Z,5.56
2022-11-28T10:46:41.416Z,5.64
2022-11-28T10:48:50.492Z,5.78
2022-11-28T10:51:03.563Z,6.23
2022-11-28T10:53:16.428Z,5.99
2022-11-28T10:55:30.271Z,5.93
2022-11-28T10:57:40.793Z,6.24
2022-11-28T11:00:00.581Z,6.07
2022-11-28T11:02:19.706Z,6.53
2022-11-28T11:04:26.564Z,6.28
2022-11-28T11:06:40.814Z,6.12
2022-11-28T11:08:48.760Z,6.09
2022-11-28T11:10:54.045Z,6.12
2022-11-28T11:12:56.790Z,6.23
2022-11-28T11:14:59.567Z,6.31
2022-11-28T11:17:02.630Z,6.37
2022-11-28T11:19:05.433Z,6.27
2022-11-28T11:21:15.156Z,6.47
2022-11-28T11:23:19.928Z,6.64
2022-11-28T11:25:26.269Z,6.57
2022-11-28T11:27:28.946Z,6.46
2022-11-28T11:29:35.520Z,6.40
2022-11-28T11:31:44.889Z,6.69
2022-11-28T11:33:48.591Z,6.70
2022-11-28T11:35:51.365Z,6.56
2022-11-28T11:37:54.217Z,6.45
2022-11-28T11:39:56.968Z,6.92
2022-11-28T11:42:21.689Z,6.60
2022-11-28T11:44:30.737Z,6.49
2022-11-28T11:46:33.488Z,6.60
2022-11-28T11:48:37.663Z,6.88
2022-11-28T11:50:54.098Z,6.32
2022-11-28T11:53:05.572Z,6.36
2022-11-28T11:55:14.971Z,6.35
2022-11-28T11:57:32.544Z,6.37
2022-11-28T11:59:45.286Z,6.37
2022-11-28T12:01:54.343Z,6.35
2022-11-28T12:04:05.631Z,6.36
2022-11-28T12:06:22.983Z,6.39
2022-11-28T12:08:32.674Z,6.49
2022-11-28T12:10:41.876Z,6.47
2022-11-28T12:12:45.966Z,6.45
2022-11-28T12:14:50.210Z,6.57
2022-11-28T12:16:57.729Z,6.45
2022-11-28T12:19:14.020Z,6.50
2022-11-28T12:21:25.804Z,6.63
2022-11-28T12:23:57.915Z,6.60
2022-11-28T12:26:11.192Z,6.71
2022-11-28T12:28:28.268Z,6.76
2022-11-28T12:30:51.470Z,6.78
2022-11-28T12:33:09.616Z,6.75
2022-11-28T12:35:25.721Z,6.84
2022-11-28T12:38:09.172Z,6.84
2022-11-28T12:40:09.596Z,6.94
2022-11-28T12:42:23.977Z,7.06
2022-11-28T12:44:39.644Z,7.04
2022-11-28T12:46:49.207Z,6.97
2022-11-28T12:49:04.510Z,7.04
2022-11-28T12:51:17.959Z,7.14
2022-11-28T12:53:46.677Z,7.11
2022-11-28T12:55:57.216Z,7.14
2022-11-28T12:58:08.719Z,7.09
2022-11-28T13:00:19.551Z,7.15
2022-11-28T13:02:33.160Z,7.17
2022-11-28T13:04:56.053Z,7.14
2022-11-28T13:07:08.141Z,7.18
2022-11-28T13:09:31.649Z,7.25
2022-11-28T13:11:53.700Z,7.22
2022-11-28T13:14:03.985Z,7.29
2022-11-28T13:16:26.635Z,7.21
2022-11-28T13:18:39.995Z,7.33
2022-11-28T13:20:43.889Z,7.80
2022-11-28T13:23:00.328Z,7.87
2022-11-28T13:25:13.289Z,8.01
2022-11-28T13:27:24.877Z,8.11
2022-11-28T13:29:35.154Z,7.85
2022-11-28T13:31:44.275Z,7.57
2022-11-28T13:33:51.863Z,7.99
2022-11-28T13:35:55.179Z,7.85
2022-11-28T13:40:32.308Z,7.79
2022-11-28T13:43:03.519Z,8.01
2022-11-28T13:45:22.745Z,7.92
2022-11-28T13:47:33.539Z,7.84
2022-11-28T13:49:36.350Z,7.82
2022-11-28T13:51:39.223Z,7.63
2022-11-28T13:53:43.134Z,7.79
2022-11-28T13:55:47.673Z,7.69
2022-11-28T13:57:50.505Z,7.60
2022-11-28T13:59:57.762Z,7.47
2022-11-28T14:02:02.863Z,7.78
2022-11-28T14:04:11.007Z,7.52
2022-11-28T14:06:16.037Z,7.58
2022-11-28T14:08:29.796Z,7.84
2022-11-28T14:11:00.657Z,7.69
2022-11-28T14:13:22.783Z,7.78
2022-11-28T14:15:33.148Z,7.79
2022-11-28T14:17:51.651Z,7.85
2022-11-28T14:20:09.847Z,7.69
2022-11-28T14:22:28.459Z,7.81
2022-11-28T14:24:49.695Z,7.86
2022-11-28T14:26:59.280Z,7.79
2022-11-28T14:29:03.961Z,7.63
2022-11-28T14:31:23.038Z,7.40
2022-11-28T14:33:32.765Z,7.33
2022-11-28T14:36:22.151Z,7.30
2022-11-28T14:38:47.299Z,7.22
2022-11-28T14:41:06.177Z,6.99
2022-11-28T14:43:27.306Z,7.01
2022-11-28T14:45:45.936Z,7.15
2022-11-28T14:48:03.417Z,7.06
2022-11-28T14:50:47.300Z,6.97
2022-11-28T14:52:54.252Z,7.03
2022-11-28T14:54:57.254Z,6.70
2022-11-28T14:57:00.511Z,6.68
2022-11-28T14:59:04.459Z,6.73
2022-11-28T15:01:15.842Z,6.75
2022-11-28T15:03:32.904Z,6.70
2022-11-28T15:05:45.129Z,6.69
2022-11-28T15:08:01.695Z,6.81
2022-11-28T15:10:11.060Z,6.78
2022-11-28T15:12:23.569Z,6.66
2022-11-28T15:14:27.540Z,6.62
2022-11-28T15:16:31.894Z,6.53
2022-11-28T15:18:36.233Z,6.57
2022-11-28T15:20:47.605Z,6.55
2022-11-28T15:22:50.387Z,6.52
2022-11-28T15:24:54.411Z,6.55
2022-11-28T15:26:58.902Z,6.58
2022-11-28T15:29:12.325Z,6.54
2022-11-28T15:31:22.676Z,6.57
2022-11-28T15:33:27.331Z,6.57
2022-11-28T15:35:30.461Z,6.54
2022-11-28T15:37:35.667Z,6.58
2022-11-28T15:39:40.999Z,6.56
2022-11-28T15:41:47.207Z,6.57
2022-11-28T15:43:50.849Z,6.51
2022-11-28T15:45:58.511Z,6.52
2022-11-28T15:48:01.311Z,6.49
2022-11-28T15:50:17.068Z,6.60
2022-11-28T15:52:19.777Z,6.55
2022-11-28T15:54:32.865Z,6.58
2022-11-28T15:56:35.851Z,6.47
2022-11-28T15:58:41.225Z,6.48
2022-11-28T16:00:48.678Z,6.50
2022-11-28T16:02:51.538Z,6.52
2022-11-28T16:05:00.738Z,6.52
2022-11-28T16:07:03.709Z,6.45
2022-11-28T16:09:09.376Z,6.41
2022-11-28T16:11:16.563Z,6.39
2022-11-28T16:13:24.355Z,6.37
2022-11-28T16:15:29.596Z,6.41
2022-11-28T16:17:35.064Z,6.71
2022-11-28T16:19:39.124Z,6.48
2022-11-28T16:21:47.530Z,6.37
2022-11-28T16:23:50.880Z,6.48
2022-11-28T16:26:00.537Z,6.51
2022-11-28T16:28:03.940Z,6.49
2022-11-28T16:30:29.829Z,6.48
2022-11-28T16:32:39.198Z,6.48
2022-11-28T16:34:46.796Z,6.35
2022-11-28T16:36:50.492Z,6.58
2022-11-28T16:38:55.334Z,6.51
2022-11-28T16:41:01.535Z,6.34
2022-11-28T16:43:06.136Z,6.31
2022-11-28T16:45:12.059Z,6.22
2022-11-28T16:47:28.102Z,6.37
2022-11-28T16:49:36.759Z,6.33
2022-11-28T16:51:41.726Z,6.39
2022-11-28T16:53:45.679Z,6.29
2022-11-28T16:55:48.439Z,6.28
2022-11-28T16:57:57.910Z,6.30
2022-11-28T17:00:00.556Z,6.35
2022-11-28T17:02:03.432Z,6.32
2022-11-28T17:04:07.861Z,6.26
2022-11-28T17:06:17.673Z,6.22
2022-11-28T17:08:20.476Z,6.18
2022-11-28T17:10:24.894Z,6.22
2022-11-28T17:12:30.704Z,6.27
2022-11-28T17:14:33.411Z,6.30
2022-11-28T17:16:36.987Z,6.31
2022-11-28T17:18:39.844Z,6.28
2022-11-28T17:20:44.188Z,6.26
2022-11-28T17:22:49.868Z,6.22
2022-11-28T17:24:56.687Z,6.20
2022-11-28T17:26:59.482Z,6.23
2022-11-28T17:29:02.389Z,6.32
2022-11-28T17:31:05.410Z,6.26
2022-11-28T17:33:08.228Z,6.29
2022-11-28T17:35:14.969Z,6.30
2022-11-28T17:37:18.978Z,6.25
2022-11-28T17:39:22.080Z,6.30
2022-11-28T17:41:26.120Z,6.32
2022-11-28T17:43:29.118Z,6.36
2022-11-28T17:45:36.036Z,6.32
2022-11-28T17:47:38.792Z,6.37
2022-11-28T17:49:46.093Z,6.42
2022-11-28T17:51:49.623Z,6.35
2022-11-28T17:53:53.753Z,6.40
2022-11-28T17:55:59.068Z,6.45
2022-11-28T17:58:01.829Z,6.52
2022-11-28T18:00:06.431Z,6.56
2022-11-28T18:02:11.919Z,6.69
2022-11-28T18:04:15.050Z,6.74
2022-11-28T18:06:18.811Z,6.69
2022-11-28T18:08:22.588Z,6.62
2022-11-28T18:10:26.818Z,6.69
2022-11-28T18:12:29.588Z,6.73
2022-11-28T18:14:38.087Z,6.82
2022-11-28T18:16:43.870Z,6.84
2022-11-28T18:18:47.260Z,6.78
2022-11-28T18:20:49.960Z,6.83
2022-11-28T18:22:52.700Z,6.82
2022-11-28T18:24:55.514Z,6.78
2022-11-28T18:26:59.643Z,6.70
2022-11-28T18:29:02.460Z,6.65
2022-11-28T18:31:11.551Z,6.72
2022-11-28T18:33:15.582Z,6.57
2022-11-28T18:35:19.521Z,6.49
2022-11-28T18:37:22.371Z,6.55
2022-11-28T18:39:25.197Z,6.53
2022-11-28T18:41:28.278Z,6.46
2022-11-28T18:43:32.447Z,6.55
2022-11-28T18:45:35.629Z,6.45
2022-11-28T18:47:38.452Z,6.48
2022-11-28T18:49:41.710Z,6.46
2022-11-28T18:51:44.659Z,6.45
2022-11-28T18:53:48.369Z,6.39
2022-11-28T18:56:00.077Z,6.30
2022-11-28T18:58:02.823Z,6.36
2022-11-28T19:00:08.648Z,6.31
2022-11-28T19:02:13.374Z,6.34
2022-11-28T19:04:16.859Z,6.40
2022-11-28T19:06:20.604Z,6.39
2022-11-28T19:08:23.373Z,6.37
2022-11-28T19:10:26.283Z,6.35
2022-11-28T19:12:28.989Z,6.39
2022-11-28T19:14:31.948Z,6.40
2022-11-28T19:16:38.008Z,6.33
2022-11-28T19:18:41.296Z,6.34
2022-11-28T19:20:44.252Z,6.30
2022-11-28T19:22:47.070Z,6.38
2022-11-28T19:24:49.810Z,6.35
2022-11-28T19:26:52.617Z,6.42
2022-11-28T19:28:56.229Z,6.43
2022-11-28T19:31:06.266Z,6.53
2022-11-28T19:33:10.434Z,6.46
2022-11-28T19:35:13.235Z,6.42
2022-11-28T19:37:16.029Z,6.31
2022-11-28T19:39:20.589Z,6.29
2022-11-28T19:41:23.753Z,6.26
2022-11-28T19:43:26.542Z,6.16
2022-11-28T19:45:29.433Z,6.18
2022-11-28T19:47:32.253Z,6.15
2022-11-28T19:49:36.329Z,6.14
2022-11-28T19:51:39.099Z,6.16
2022-11-28T19:53:43.435Z,6.16
2022-11-28T19:55:46.215Z,6.18
2022-11-28T19:57:48.973Z,6.21
2022-11-28T19:59:51.693Z,6.11
2022-11-28T20:01:54.461Z,6.12
2022-11-28T20:03:59.270Z,6.08
2022-11-28T20:06:03.522Z,6.07
2022-11-28T20:08:07.088Z,6.06
2022-11-28T20:10:10.564Z,6.01
2022-11-28T20:12:13.321Z,6.12
2022-11-28T20:14:18.179Z,5.95
2022-11-28T20:16:20.930Z,5.93
2022-11-28T20:18:23.739Z,5.92
2022-11-28T20:20:26.415Z,5.86
2022-11-28T20:22:30.927Z,5.92
2022-11-28T20:24:33.711Z,5.92
2022-11-28T20:26:38.958Z,5.92
2022-11-28T20:28:42.965Z,5.88
2022-11-28T20:30:45.819Z,5.85
2022-11-28T20:32:48.660Z,5.90
2022-11-28T20:34:51.375Z,5.88
2022-11-28T20:36:54.699Z,5.90
2022-11-28T20:38:59.403Z,5.84
2022-11-28T20:41:02.521Z,5.89
2022-11-28T20:43:05.307Z,5.90
2022-11-28T20:45:08.949Z,5.89
2022-11-28T20:47:11.966Z,5.90
2022-11-28T20:49:15.664Z,5.89
2022-11-28T20:51:20.174Z,5.90
2022-11-28T20:53:26.778Z,5.92
2022-11-28T20:55:31.265Z,6.00
2022-11-28T20:57:33.976Z,5.98
2022-11-28T20:59:36.876Z,5.95
2022-11-28T21:01:39.591Z,5.98
2022-11-28T21:03:42.414Z,5.99
2022-11-28T21:05:45.176Z,5.96
2022-11-28T21:07:48.007Z,5.92
2022-11-28T21:09:51.088Z,5.98
2022-11-28T21:11:58.663Z,5.95
2022-11-28T21:14:02.737Z,5.98
2022-11-28T21:16:07.225Z,5.95
2022-11-28T21:18:10.574Z,5.90
2022-11-28T21:20:13.924Z,5.91
2022-11-28T21:22:16.629Z,5.91
2022-11-28T21:24:19.400Z,5.93
2022-11-28T21:26:28.811Z,5.92
2022-11-28T21:28:36.194Z,5.93
2022-11-28T21:30:42.709Z,5.92
2022-11-28T21:32:46.714Z,5.90
2022-11-28T21:34:49.472Z,5.90
2022-11-28T21:36:52.285Z,5.88
2022-11-28T21:38:56.994Z,5.91
2022-11-28T21:41:00.413Z,5.82
2022-11-28T21:43:03.140Z,5.86
2022-11-28T21:45:08.662Z,5.82
2022-11-28T21:47:11.402Z,5.83
2022-11-28T21:49:14.228Z,5.85
2022-11-28T21:51:18.083Z,5.81
2022-11-28T21:53:21.277Z,5.83
2022-11-28T21:55:24.079Z,5.82
2022-11-28T21:57:26.814Z,5.83
2022-11-28T21:59:29.537Z,5.81
2022-11-28T22:01:33.762Z,5.91
2022-11-28T22:03:37.060Z,5.86
2022-11-28T22:05:39.918Z,5.82
2022-11-28T22:07:42.701Z,5.85
2022-11-28T22:12:06.706Z,5.91
2022-11-28T22:14:09.602Z,5.98
2022-11-28T22:16:15.397Z,5.96
2022-11-28T22:18:19.510Z,5.91
2022-11-28T22:20:22.187Z,5.93
2022-11-28T22:22:27.355Z,5.89
2022-11-28T22:24:30.206Z,5.93
2022-11-28T22:26:33.499Z,5.99
2022-11-28T22:28:38.006Z,5.99
2022-11-28T22:30:40.696Z,5.99
2022-11-28T22:32:43.487Z,6.08
2022-11-28T22:34:47.615Z,5.97
2022-11-28T22:36:50.303Z,5.97
2022-11-28T22:38:56.436Z,5.92
2022-11-28T22:40:59.242Z,5.96
2022-11-28T22:43:02.023Z,6.01
2022-11-28T22:45:05.652Z,6.11
2022-11-28T22:47:08.492Z,6.01
2022-11-28T22:49:11.387Z,5.99
2022-11-28T22:51:19.712Z,6.05
2022-11-28T22:53:22.611Z,6.05
2022-11-28T22:55:25.328Z,6.08
2022-11-28T22:57:27.989Z,6.07
2022-11-28T22:59:33.620Z,6.09
2022-11-28T23:01:36.461Z,6.15
2022-11-28T23:03:39.264Z,6.07
2022-11-28T23:05:46.532Z,6.08
2022-11-28T23:07:53.652Z,6.02
2022-11-28T23:09:56.389Z,6.02
2022-11-28T23:12:01.184Z,6.03
2022-11-28T23:14:04.603Z,6.01
2022-11-28T23:16:12.873Z,6.00
2022-11-28T23:18:15.747Z,6.01
2022-11-28T23:20:18.575Z,6.06
2022-11-28T23:22:21.305Z,6.01
2022-11-28T23:24:25.484Z,6.06
2022-11-28T23:26:30.268Z,6.14
2022-11-28T23:28:33.463Z,6.03
2022-11-28T23:30:36.208Z,6.11
2022-11-28T23:32:39.025Z,6.04
2022-11-28T23:34:42.059Z,6.07
2022-11-28T23:36:47.062Z,6.05
2022-11-28T23:38:51.296Z,6.05
2022-11-28T23:40:57.645Z,6.07
2022-11-28T23:43:00.354Z,6.07
2022-11-28T23:45:03.082Z,6.05
2022-11-28T23:47:05.923Z,6.17
2022-11-28T23:49:09.540Z,6.11
2022-11-28T23:51:14.006Z,6.16
2022-11-28T23:53:16.807Z,6.10
2022-11-28T23:55:19.494Z,6.23
2022-11-28T23:57:23.629Z,6.09
2022-11-28T23:59:26.533Z,6.07
